createdAt,value
2018-04-11T00:00:02.688Z,10.70
2018-04-11T00:02:30.166Z,10.70
2018-04-11T00:04:57.672Z,10.70
2018-04-11T00:07:25.242Z,10.60
2018-04-11T00:09:52.743Z,10.60
2018-04-11T00:12:20.247Z,10.60
2018-04-11T00:14:47.807Z,10.60
2018-04-11T00:17:15.285Z,10.60
2018-04-11T00:19:42.739Z,10.60
2018-04-11T00:22:10.235Z,10.60
2018-04-11T00:24:37.912Z,10.50
2018-04-11T00:27:05.371Z,10.60
2018-04-11T00:29:32.848Z,10.60
2018-04-11T00:32:00.303Z,10.60
2018-04-11T00:34:27.782Z,10.50
2018-04-11T00:36:55.237Z,10.50
2018-04-11T00:39:23.284Z,10.50
2018-04-11T00:41:50.803Z,10.50
2018-04-11T00:44:19.802Z,10.60
2018-04-11T00:46:47.271Z,10.50
2018-04-11T00:49:15.578Z,10.40
2018-04-11T00:51:43.040Z,10.40
2018-04-11T00:54:10.519Z,10.40
2018-04-11T00:56:38.004Z,10.40
2018-04-11T00:59:05.485Z,10.30
2018-04-11T01:01:33.781Z,10.40
2018-04-11T01:04:01.260Z,10.40
2018-04-11T01:06:28.742Z,10.40
2018-04-11T01:08:56.313Z,10.40
2018-04-11T01:11:24.550Z,10.40
2018-04-11T01:13:52.041Z,10.40
2018-04-11T01:16:19.502Z,10.40
2018-04-11T01:18:46.978Z,10.50
2018-04-11T01:21:15.205Z,10.30
2018-04-11T01:23:42.661Z,10.30
2018-04-11T01:26:10.191Z,10.30
2018-04-11T01:28:37.647Z,10.30
2018-04-11T01:31:05.208Z,10.20
2018-04-11T01:33:32.767Z,10.30
2018-04-11T01:36:00.286Z,10.30
2018-04-11T01:38:27.732Z,10.40
2018-04-11T01:40:55.299Z,10.40
2018-04-11T01:43:22.798Z,10.40
2018-04-11T01:45:50.363Z,10.40
2018-04-11T01:48:17.891Z,10.30
2018-04-11T01:50:46.157Z,10.40
2018-04-11T01:53:14.381Z,10.30
2018-04-11T01:55:41.871Z,10.30
2018-04-11T01:58:09.330Z,10.40
2018-04-11T02:00:36.800Z,10.40
2018-04-11T02:03:04.295Z,10.30
2018-04-11T02:05:31.929Z,10.20
2018-04-11T02:08:00.159Z,10.10
2018-04-11T02:10:27.655Z,10.10
2018-04-11T02:12:55.106Z,10.10
2018-04-11T02:15:22.569Z,10.10
2018-04-11T02:17:50.823Z,10.20
2018-04-11T02:20:18.299Z,10.20
2018-04-11T02:22:45.801Z,10.30
2018-04-11T02:25:13.263Z,10.30
2018-04-11T02:27:40.816Z,10.30
2018-04-11T02:30:08.376Z,10.40
2018-04-11T02:32:35.889Z,10.40
2018-04-11T02:35:03.351Z,10.30
2018-04-11T02:37:31.598Z,10.30
2018-04-11T02:39:59.075Z,10.20
2018-04-11T02:42:26.784Z,10.20
2018-04-11T02:44:54.356Z,10.20
2018-04-11T02:47:21.857Z,10.30
2018-04-11T02:49:49.354Z,10.30
2018-04-11T02:52:16.845Z,10.30
2018-04-11T02:54:44.323Z,10.30
2018-04-11T02:57:11.876Z,10.30
2018-04-11T02:59:39.351Z,10.40
2018-04-11T03:02:07.577Z,10.30
2018-04-11T03:04:35.067Z,10.40
2018-04-11T03:07:02.536Z,10.30
2018-04-11T03:09:30.032Z,10.30
2018-04-11T03:11:57.511Z,10.40
2018-04-11T03:14:25.003Z,10.40
2018-04-11T03:16:52.474Z,10.40
2018-04-11T03:19:20.731Z,10.40
2018-04-11T03:21:48.974Z,10.40
2018-04-11T03:24:16.569Z,10.40
2018-04-11T03:26:44.031Z,10.40
2018-04-11T03:29:11.521Z,10.40
2018-04-11T03:31:39.001Z,10.40
2018-04-11T03:34:06.487Z,10.40
2018-04-11T03:36:34.309Z,10.40
2018-04-11T03:39:01.828Z,10.50
2018-04-11T03:41:29.295Z,10.50
2018-04-11T03:43:57.561Z,10.50
2018-04-11T03:46:25.019Z,10.50
2018-04-11T03:48:53.344Z,10.50
2018-04-11T03:51:20.829Z,10.50
2018-04-11T03:53:48.453Z,10.60
2018-04-11T03:56:15.947Z,10.50
2018-04-11T03:58:43.572Z,10.50
2018-04-11T04:01:11.136Z,10.50
2018-04-11T04:03:38.630Z,10.50
2018-04-11T04:06:07.630Z,10.50
2018-04-11T04:08:35.122Z,10.50
2018-04-11T04:11:02.623Z,10.50
2018-04-11T04:13:41.980Z,10.50
2018-04-11T04:16:21.369Z,10.50
2018-04-11T04:19:00.631Z,10.50
2018-04-11T04:21:28.262Z,10.50
2018-04-11T04:23:55.824Z,10.50
2018-04-11T04:26:23.304Z,10.50
2018-04-11T04:28:50.772Z,10.40
2018-04-11T04:31:18.294Z,10.50
2018-04-11T04:33:45.759Z,10.40
2018-04-11T04:36:13.309Z,11.30
2018-04-11T04:38:40.824Z,10.50
2018-04-11T04:41:08.380Z,10.50
2018-04-11T04:43:36.042Z,10.50
2018-04-11T04:46:03.531Z,10.50
2018-04-11T04:48:31.003Z,10.40
2018-04-11T04:50:58.500Z,10.50
2018-04-11T04:53:25.963Z,10.50
2018-04-11T04:55:53.449Z,10.40
2018-04-11T04:58:21.750Z,10.40
2018-04-11T05:00:49.312Z,10.30
2018-04-11T05:03:16.772Z,10.40
2018-04-11T05:05:44.300Z,10.40
2018-04-11T05:08:12.564Z,10.50
2018-04-11T05:10:40.828Z,10.40
2018-04-11T05:13:08.303Z,10.40
2018-04-11T05:15:36.535Z,10.40
2018-04-11T05:18:04.126Z,10.40
2018-04-11T05:20:31.608Z,10.40
2018-04-11T05:22:59.876Z,10.40
2018-04-11T05:25:28.140Z,10.30
2018-04-11T05:27:55.633Z,10.30
2018-04-11T05:30:23.164Z,10.30
2018-04-11T05:32:51.427Z,10.40
2018-04-11T05:35:18.900Z,10.40
2018-04-11T05:37:47.150Z,10.40
2018-04-11T05:40:14.623Z,10.40
2018-04-11T05:42:42.116Z,10.40
2018-04-11T05:45:09.592Z,10.40
2018-04-11T05:47:37.083Z,10.50
2018-04-11T05:50:05.415Z,10.40
2018-04-11T05:52:32.907Z,10.40
2018-04-11T05:55:00.393Z,10.40
2018-04-11T05:57:28.704Z,10.50
2018-04-11T05:59:56.183Z,10.50
2018-04-11T06:02:24.024Z,10.50
2018-04-11T06:04:51.895Z,10.50
2018-04-11T06:07:19.407Z,10.50
2018-04-11T06:09:46.906Z,10.40
2018-04-11T06:12:14.377Z,10.50
2018-04-11T06:14:41.921Z,10.50
2018-04-11T06:17:09.391Z,10.50
2018-04-11T06:19:36.940Z,10.50
2018-04-11T06:22:04.408Z,10.50
2018-04-11T06:24:31.944Z,10.50
2018-04-11T06:26:59.408Z,10.50
2018-04-11T06:29:26.888Z,10.50
2018-04-11T06:31:54.429Z,10.50
2018-04-11T06:34:23.052Z,10.50
2018-04-11T06:36:50.676Z,10.60
2018-04-11T06:39:18.174Z,10.60
2018-04-11T06:41:45.791Z,10.60
2018-04-11T06:44:13.279Z,10.60
2018-04-11T06:46:40.806Z,10.70
2018-04-11T06:49:09.312Z,10.70
2018-04-11T06:51:36.863Z,10.70
2018-04-11T06:54:04.409Z,10.60
2018-04-11T06:56:32.353Z,10.70
2018-04-11T06:59:00.575Z,10.60
2018-04-11T07:01:28.055Z,10.60
2018-04-11T07:03:56.295Z,10.60
2018-04-11T07:06:23.771Z,10.60
2018-04-11T07:08:51.299Z,10.60
2018-04-11T07:11:18.780Z,10.60
2018-04-11T07:13:46.264Z,10.60
2018-04-11T07:16:13.751Z,10.60
2018-04-11T07:18:42.001Z,10.60
2018-04-11T07:21:10.478Z,10.60
2018-04-11T07:23:37.948Z,10.70
2018-04-11T07:26:06.183Z,10.70
2018-04-11T07:28:33.653Z,10.60
2018-04-11T07:31:01.131Z,10.70
2018-04-11T07:33:28.684Z,10.70
2018-04-11T07:35:56.201Z,10.70
2018-04-11T07:38:23.663Z,10.80
2018-04-11T07:40:51.138Z,10.80
2018-04-11T07:43:18.612Z,10.80
2018-04-11T07:45:46.119Z,10.80
2018-04-11T07:48:13.612Z,10.90
2018-04-11T07:50:41.084Z,11.00
2018-04-11T07:53:08.552Z,10.90
2018-04-11T07:55:36.867Z,10.90
2018-04-11T07:58:04.369Z,10.90
2018-04-11T08:00:31.887Z,10.90
2018-04-11T08:02:59.387Z,11.00
2018-04-11T08:05:26.901Z,11.00
2018-04-11T08:07:54.465Z,11.00
2018-04-11T08:10:21.932Z,11.00
2018-04-11T08:12:49.478Z,11.00
2018-04-11T08:15:16.936Z,11.10
2018-04-11T08:17:44.428Z,11.10
2018-04-11T08:20:11.947Z,11.20
2018-04-11T08:22:39.432Z,11.20
2018-04-11T08:25:06.900Z,11.20
2018-04-11T08:27:34.392Z,11.20
2018-04-11T08:30:02.623Z,11.20
2018-04-11T08:32:30.091Z,11.20
2018-04-11T08:34:57.571Z,11.30
2018-04-11T08:37:25.885Z,11.30
2018-04-11T08:39:53.366Z,11.20
2018-04-11T08:42:20.844Z,11.40
2018-04-11T08:44:49.861Z,11.30
2018-04-11T08:47:18.174Z,11.40
2018-04-11T08:49:45.679Z,11.40
2018-04-11T08:52:13.143Z,11.40
2018-04-11T08:54:40.619Z,11.40
2018-04-11T08:57:08.848Z,11.50
2018-04-11T08:59:36.336Z,11.40
2018-04-11T09:02:03.852Z,11.40
2018-04-11T09:04:31.398Z,11.50
2018-04-11T09:06:58.953Z,11.50
2018-04-11T09:09:26.475Z,11.60
2018-04-11T09:11:54.711Z,11.80
2018-04-11T09:14:22.191Z,11.70
2018-04-11T09:16:49.667Z,11.80
2018-04-11T09:19:17.912Z,11.90
2018-04-11T09:21:45.383Z,11.80
2018-04-11T09:24:12.888Z,11.90
2018-04-11T09:26:40.450Z,11.90
2018-04-11T09:29:08.797Z,12.10
2018-04-11T09:31:37.051Z,12.30
2018-04-11T09:34:04.528Z,12.30
2018-04-11T09:36:32.783Z,12.30
2018-04-11T09:39:00.244Z,12.30
2018-04-11T09:41:27.723Z,12.40
2018-04-11T09:43:56.025Z,12.60
2018-04-11T09:46:23.507Z,12.60
2018-04-11T09:48:50.971Z,12.70
2018-04-11T09:51:18.452Z,12.90
2018-04-11T09:53:45.954Z,12.90
2018-04-11T09:56:13.467Z,13.00
2018-04-11T09:58:40.941Z,13.00
2018-04-11T10:01:09.207Z,13.10
2018-04-11T10:03:42.334Z,13.10
2018-04-11T10:06:09.897Z,13.20
2018-04-11T10:08:37.354Z,13.40
2018-04-11T10:11:04.896Z,13.60
2018-04-11T10:13:33.130Z,14.00
2018-04-11T10:16:01.384Z,14.10
2018-04-11T10:18:28.922Z,14.00
2018-04-11T10:20:56.432Z,14.20
2018-04-11T10:23:24.042Z,14.20
2018-04-11T10:25:51.499Z,14.20
2018-04-11T10:28:18.992Z,14.20
2018-04-11T10:30:46.513Z,14.20
2018-04-11T10:33:14.028Z,14.30
2018-04-11T10:35:41.583Z,14.10
2018-04-11T10:38:09.072Z,14.30
2018-04-11T10:40:36.595Z,14.30
2018-04-11T10:43:04.853Z,14.40
2018-04-11T10:45:32.339Z,14.40
2018-04-11T10:47:59.823Z,14.50
2018-04-11T10:50:27.358Z,14.60
2018-04-11T10:52:55.618Z,14.70
2018-04-11T10:55:23.093Z,14.70
2018-04-11T10:57:51.359Z,14.90
2018-04-11T11:00:18.828Z,14.90
2018-04-11T11:02:47.079Z,15.10
2018-04-11T11:05:14.556Z,15.00
2018-04-11T11:07:42.809Z,15.10
2018-04-11T11:10:10.275Z,15.10
2018-04-11T11:12:38.524Z,15.20
2018-04-11T11:15:06.059Z,15.20
2018-04-11T11:17:33.538Z,15.30
2018-04-11T11:20:01.860Z,15.20
2018-04-11T11:22:30.100Z,15.30
2018-04-11T11:24:57.570Z,15.30
2018-04-11T11:27:25.099Z,15.40
2018-04-11T11:29:52.562Z,15.50
2018-04-11T11:32:20.043Z,15.50
2018-04-11T11:34:47.499Z,15.50
2018-04-11T11:37:15.015Z,15.50
2018-04-11T11:39:42.597Z,15.60
2018-04-11T11:42:10.086Z,15.60
2018-04-11T11:44:37.543Z,15.70
2018-04-11T11:47:05.041Z,15.70
2018-04-11T11:49:32.496Z,15.80
2018-04-11T11:52:00.027Z,15.80
2018-04-11T11:54:27.455Z,15.80
2018-04-11T11:56:54.943Z,16.00
2018-04-11T11:59:23.599Z,16.10
2018-04-11T12:01:51.233Z,16.10
2018-04-11T12:04:18.791Z,16.20
2018-04-11T12:06:46.265Z,16.20
2018-04-11T12:09:13.746Z,16.20
2018-04-11T12:11:41.237Z,16.30
2018-04-11T12:14:09.459Z,16.40
2018-04-11T12:16:36.940Z,16.30
2018-04-11T12:19:05.972Z,16.60
2018-04-11T12:21:33.488Z,16.60
2018-04-11T12:24:00.958Z,16.50
2018-04-11T12:26:29.229Z,16.60
2018-04-11T12:28:56.783Z,16.60
2018-04-11T12:31:24.246Z,16.70
2018-04-11T12:33:52.492Z,16.70
2018-04-11T12:36:20.066Z,16.70
2018-04-11T12:38:47.531Z,16.80
2018-04-11T12:41:15.191Z,16.90
2018-04-11T12:43:44.187Z,17.20
2018-04-11T12:46:11.643Z,17.20
2018-04-11T12:48:40.636Z,17.30
2018-04-11T12:51:08.869Z,17.30
2018-04-11T12:53:36.344Z,17.30
2018-04-11T12:56:03.804Z,17.40
2018-04-11T12:58:31.318Z,17.60
2018-04-11T13:00:59.996Z,17.80
2018-04-11T13:03:27.827Z,17.80
2018-04-11T13:05:55.292Z,17.80
2018-04-11T13:08:22.788Z,17.70
2018-04-11T13:10:50.245Z,17.80
2018-04-11T13:13:17.763Z,18.00
2018-04-11T13:15:45.226Z,18.10
2018-04-11T13:18:13.491Z,18.40
2018-04-11T13:20:41.006Z,18.40
2018-04-11T13:23:08.581Z,18.30
2018-04-11T13:25:36.153Z,18.40
2018-04-11T13:28:03.623Z,18.70
2018-04-11T13:30:31.099Z,18.60
2018-04-11T13:32:59.417Z,18.70
2018-04-11T13:35:26.969Z,18.70
2018-04-11T13:37:54.452Z,18.80
2018-04-11T13:40:21.964Z,19.10
2018-04-11T13:42:50.208Z,19.60
2018-04-11T13:45:17.687Z,19.50
2018-04-11T13:47:45.995Z,20.60
2018-04-11T13:50:13.556Z,20.50
2018-04-11T13:52:41.112Z,20.90
2018-04-11T13:55:08.633Z,21.40
2018-04-11T13:57:36.113Z,21.50
2018-04-11T14:00:03.587Z,22.00
2018-04-11T14:02:31.191Z,22.30
2018-04-11T14:04:58.610Z,22.70
2018-04-11T14:07:26.103Z,23.00
2018-04-11T14:09:53.559Z,23.30
2018-04-11T14:12:21.073Z,23.40
2018-04-11T14:14:48.539Z,23.70
2018-04-11T14:17:16.029Z,24.00
2018-04-11T14:19:43.520Z,24.50
2018-04-11T14:22:11.783Z,24.30
2018-04-11T14:24:39.259Z,24.30
2018-04-11T14:27:07.559Z,24.40
2018-04-11T14:29:35.025Z,24.40
2018-04-11T14:32:02.524Z,24.80
2018-04-11T14:34:29.993Z,25.40
2018-04-11T14:36:58.257Z,26.30
2018-04-11T14:39:26.585Z,26.30
2018-04-11T14:41:54.143Z,26.30
2018-04-11T14:44:21.651Z,26.80
2018-04-11T14:46:49.105Z,26.60
2018-04-11T14:49:16.575Z,26.90
2018-04-11T14:51:44.879Z,27.10
2018-04-11T14:54:12.376Z,27.10
2018-04-11T14:56:39.847Z,27.10
2018-04-11T14:59:07.422Z,27.40
2018-04-11T15:01:34.880Z,27.70
2018-04-11T15:04:02.357Z,27.50
2018-04-11T15:06:30.603Z,27.60
2018-04-11T15:08:58.159Z,27.60
2018-04-11T15:11:25.640Z,28.40
2018-04-11T15:13:53.898Z,30.20
2018-04-11T15:16:21.503Z,30.20
2018-04-11T15:18:48.966Z,30.70
2018-04-11T15:21:16.452Z,31.20
2018-04-11T15:23:43.933Z,31.20
2018-04-11T15:26:11.387Z,31.30
2018-04-11T15:28:39.762Z,32.10
2018-04-11T15:31:07.224Z,32.10
2018-04-11T15:33:34.748Z,32.00
2018-04-11T15:36:02.271Z,32.40
2018-04-11T15:38:29.844Z,32.70
2018-04-11T15:40:57.302Z,32.90
2018-04-11T15:43:24.807Z,33.20
2018-04-11T15:45:52.271Z,33.10
2018-04-11T15:48:19.763Z,33.70
2018-04-11T15:50:47.302Z,33.40
2018-04-11T15:53:15.622Z,33.00
2018-04-11T15:55:43.140Z,33.00
2018-04-11T15:58:11.387Z,33.00
2018-04-11T16:00:38.847Z,33.00
2018-04-11T16:03:06.332Z,32.90
2018-04-11T16:05:34.562Z,31.50
2018-04-11T16:08:02.158Z,31.40
2018-04-11T16:10:30.417Z,29.30
2018-04-11T16:12:57.891Z,29.20
2018-04-11T16:15:26.138Z,27.00
2018-04-11T16:17:53.720Z,26.90
2018-04-11T16:20:21.275Z,26.30
2018-04-11T16:22:48.755Z,25.70
2018-04-11T16:25:17.035Z,24.90
2018-04-11T16:27:45.283Z,24.50
2018-04-11T16:30:12.743Z,24.50
2018-04-11T16:32:40.228Z,24.30
2018-04-11T16:35:07.729Z,24.20
2018-04-11T16:37:35.208Z,23.80
2018-04-11T16:40:02.664Z,23.50
2018-04-11T16:42:30.155Z,23.30
2018-04-11T16:44:57.606Z,23.00
2018-04-11T16:47:25.838Z,22.80
2018-04-11T16:49:53.413Z,22.70
2018-04-11T16:52:21.663Z,22.30
2018-04-11T16:54:49.123Z,22.30
2018-04-11T16:57:16.618Z,22.10
2018-04-11T16:59:44.862Z,21.80
2018-04-11T17:02:12.332Z,21.70
2018-04-11T17:04:39.843Z,21.60
2018-04-11T17:07:07.314Z,21.40
2018-04-11T17:09:34.842Z,21.30
2018-04-11T17:12:03.064Z,21.10
2018-04-11T17:14:30.552Z,21.10
2018-04-11T17:16:58.085Z,21.00
2018-04-11T17:19:25.552Z,20.80
2018-04-11T17:22:05.048Z,20.70
2018-04-11T17:24:44.532Z,20.50
2018-04-11T17:27:25.334Z,20.30
2018-04-11T17:30:05.680Z,20.30
2018-04-11T17:32:33.903Z,20.10
2018-04-11T17:35:01.399Z,20.10
2018-04-11T17:37:28.887Z,19.90
2018-04-11T17:39:57.141Z,19.70
2018-04-11T17:42:24.728Z,19.70
2018-04-11T17:44:52.207Z,19.60
2018-04-11T17:47:19.684Z,19.40
2018-04-11T17:49:47.216Z,19.40
2018-04-11T17:52:14.702Z,19.30
2018-04-11T17:54:42.176Z,19.20
2018-04-11T17:57:09.678Z,19.10
2018-04-11T17:59:37.176Z,19.10
2018-04-11T18:02:04.685Z,18.90
2018-04-11T18:04:32.262Z,18.80
2018-04-11T18:06:59.805Z,18.80
2018-04-11T18:09:27.342Z,18.80
2018-04-11T18:11:54.791Z,18.60
2018-04-11T18:14:22.268Z,18.60
2018-04-11T18:16:50.544Z,18.60
2018-04-11T18:19:18.027Z,18.50
2018-04-11T18:21:45.532Z,18.50
2018-04-11T18:24:14.524Z,18.40
2018-04-11T18:26:42.756Z,18.30
2018-04-11T18:29:10.243Z,18.30
2018-04-11T18:31:37.716Z,18.20
2018-04-11T18:34:05.960Z,18.10
2018-04-11T18:36:33.430Z,18.20
2018-04-11T18:39:00.908Z,18.20
2018-04-11T18:41:29.185Z,18.10
2018-04-11T18:43:57.428Z,17.90
2018-04-11T18:46:24.898Z,18.00
2018-04-11T18:48:52.514Z,17.90
2018-04-11T18:51:19.993Z,17.80
2018-04-11T18:53:47.484Z,17.80
2018-04-11T18:56:14.958Z,17.60
2018-04-11T18:58:42.507Z,17.50
2018-04-11T19:01:11.476Z,17.30
2018-04-11T19:03:38.962Z,17.30
2018-04-11T19:06:06.444Z,17.20
2018-04-11T19:08:34.817Z,17.10
2018-04-11T19:11:03.109Z,16.90
2018-04-11T19:13:30.742Z,17.00
2018-04-11T19:15:58.153Z,16.90
2018-04-11T19:18:25.646Z,16.90
2018-04-11T19:20:53.107Z,16.80
2018-04-11T19:23:20.594Z,16.70
2018-04-11T19:25:48.194Z,16.70
2018-04-11T19:28:15.667Z,16.60
2018-04-11T19:30:43.912Z,16.50
2018-04-11T19:33:11.392Z,16.40
2018-04-11T19:35:40.372Z,16.40
2018-04-11T19:38:07.840Z,16.40
2018-04-11T19:40:36.089Z,16.20
2018-04-11T19:43:03.562Z,16.20
2018-04-11T19:45:31.044Z,16.20
2018-04-11T19:47:58.546Z,16.20
2018-04-11T19:50:26.044Z,16.10
2018-04-11T19:52:53.540Z,16.10
2018-04-11T19:55:21.838Z,16.00
2018-04-11T19:57:49.322Z,16.00
2018-04-11T20:00:16.792Z,16.00
2018-04-11T20:02:44.334Z,15.90
2018-04-11T20:05:11.853Z,15.90
2018-04-11T20:07:39.518Z,15.90
2018-04-11T20:10:07.013Z,15.90
2018-04-11T20:12:34.530Z,15.80
2018-04-11T20:15:02.005Z,15.80
2018-04-11T20:17:29.463Z,15.70
2018-04-11T20:19:56.956Z,15.70
2018-04-11T20:22:24.532Z,15.70
2018-04-11T20:24:52.783Z,15.60
2018-04-11T20:27:20.328Z,15.60
2018-04-11T20:29:47.807Z,15.50
2018-04-11T20:32:15.267Z,15.50
2018-04-11T20:34:42.747Z,15.50
2018-04-11T20:37:10.443Z,15.50
2018-04-11T20:39:37.989Z,15.40
2018-04-11T20:42:05.451Z,15.40
2018-04-11T20:44:32.971Z,15.40
2018-04-11T20:47:00.429Z,15.40
2018-04-11T20:49:28.999Z,15.30
2018-04-11T20:51:56.483Z,15.30
2018-04-11T20:54:24.731Z,15.20
2018-04-11T20:56:52.200Z,15.20
2018-04-11T20:59:20.477Z,15.20
2018-04-11T21:01:48.545Z,15.10
2018-04-11T21:04:16.885Z,15.10
2018-04-11T21:06:44.388Z,15.00
2018-04-11T21:09:11.968Z,15.10
2018-04-11T21:11:40.267Z,15.00
2018-04-11T21:14:07.839Z,15.00
2018-04-11T21:16:35.329Z,15.00
2018-04-11T21:19:02.951Z,14.90
2018-04-11T21:21:30.455Z,14.90
2018-04-11T21:23:58.903Z,14.90
2018-04-11T21:26:26.406Z,14.90
2018-04-11T21:28:54.734Z,14.80
2018-04-11T21:31:22.203Z,14.90
2018-04-11T21:33:49.676Z,14.80
2018-04-11T21:36:17.177Z,14.80
2018-04-11T21:38:44.658Z,14.80
2018-04-11T21:41:12.151Z,14.80
2018-04-11T21:43:39.617Z,14.80
2018-04-11T21:46:07.113Z,14.70
2018-04-11T21:48:34.600Z,14.70
2018-04-11T21:51:02.134Z,14.70
2018-04-11T21:53:30.359Z,14.70
2018-04-11T21:55:57.844Z,14.60
2018-04-11T21:58:26.075Z,14.70
2018-04-11T22:00:53.568Z,14.60
2018-04-11T22:03:21.830Z,14.60
2018-04-11T22:05:49.340Z,14.60
2018-04-11T22:08:16.808Z,14.60
2018-04-11T22:10:44.350Z,14.70
2018-04-11T22:13:11.820Z,14.60
2018-04-11T22:15:39.334Z,14.60
2018-04-11T22:18:07.591Z,14.60
2018-04-11T22:20:35.202Z,14.50
2018-04-11T22:23:02.730Z,14.50
2018-04-11T22:25:30.990Z,14.50
2018-04-11T22:27:58.469Z,14.50
2018-04-11T22:30:26.716Z,14.60
2018-04-11T22:32:54.970Z,14.60
2018-04-11T22:35:22.459Z,14.50
2018-04-11T22:37:50.753Z,14.60
2018-04-11T22:40:19.024Z,14.60
2018-04-11T22:42:47.260Z,14.50
2018-04-11T22:45:14.736Z,14.50
2018-04-11T22:47:43.740Z,14.50
2018-04-11T22:50:11.251Z,14.50
2018-04-11T22:52:39.532Z,14.50
2018-04-11T22:55:07.048Z,14.50
2018-04-11T22:57:35.275Z,14.50
2018-04-11T23:00:02.769Z,14.40
2018-04-11T23:02:31.147Z,14.40
2018-04-11T23:04:59.444Z,14.40
2018-04-11T23:07:26.929Z,14.40
2018-04-11T23:09:54.425Z,14.30
2018-04-11T23:12:21.937Z,14.40
2018-04-11T23:14:49.432Z,14.30
2018-04-11T23:17:16.928Z,14.40
2018-04-11T23:19:44.426Z,14.30
2018-04-11T23:22:11.927Z,14.30
2018-04-11T23:24:40.188Z,14.30
2018-04-11T23:27:07.653Z,14.30
2018-04-11T23:29:35.998Z,14.30
2018-04-11T23:32:03.471Z,14.30
2018-04-11T23:34:30.986Z,14.30
2018-04-11T23:36:58.503Z,14.30
2018-04-11T23:39:26.172Z,14.30
2018-04-11T23:41:54.464Z,14.30
2018-04-11T23:44:22.726Z,14.30
2018-04-11T23:46:50.986Z,14.30
2018-04-11T23:49:18.464Z,14.30
2018-04-11T23:51:46.835Z,14.30
2018-04-11T23:54:15.085Z,14.30
2018-04-11T23:56:42.677Z,14.30
2018-04-11T23:59:10.926Z,14.30
